Historique des mesures à Cassis (13260), France
Quotidien Résumé Décembre 12, 2017 Unités:  Métrique    US   Métrique/US
« Précédent (Jour)
Suivant (Jour) »
Quotidien Hebdomadaire Mensuel Annuel Période au choix
  Maximum: Minimum: Moyenne:
Température: TemperatureC °C 5.9 °C 7.8 °C
Point de rosée: DewpointC °C 0.9 °C 4 °C
Humidité: Humidity % 65 % 73 %
Vitesse du vent: 0 km/h 0 km/h 0.3 km/h
Rafales: 0 km/h - -
Vent:- - SW
Pression: PressurehPa hPa 998.9 hPa -
Précipitations: 0.0 mm    
Historical Graphs
 
 
Mesures pour : Décembre 12, 2017
Heure Temperature Point de rosée Pression Vent Vitesse du vent Rafales Humidité Pluie (par heure) Conditions
TemperatureC °C DewpointC °C PressurehPa hPa Calm     Humidity % HourlyPrecipMM mm SoftwareType W/m2
00:10 7.8 °C 5.6 °C 998.9 hPa Calm     86 % 0.0 mm open2300-1.11 W/m2
01:10 7.9 °C 5.7 °C 1000.2 hPa Calm     86 % 0.0 mm open2300-1.11 W/m2
02:10 7.8 °C 5.6 °C 1001.2 hPa Calm     86 % 0.0 mm open2300-1.11 W/m2
03:10 8.0 °C 5.8 °C 1002.6 hPa Calm     86 % 0.0 mm open2300-1.11 W/m2
04:10 7.1 °C 4.7 °C 1002.9 hPa Calm     85 % 0.0 mm open2300-1.11 W/m2
05:10 6.7 °C 4.3 °C 1003.6 hPa Calm     85 % 0.0 mm open2300-1.11 W/m2
06:10 7.4 °C 5.1 °C 1005.0 hPa Calm     85 % 0.0 mm open2300-1.11 W/m2
07:10 7.1 °C 4.6 °C 1005.3 hPa Calm     84 % 0.0 mm open2300-1.11 W/m2
08:10 7.5 °C 4.1 °C 1006.7 hPa Calm     79 % 0.0 mm open2300-1.11 W/m2
09:10 7.8 °C 4.0 °C 1008.0 hPa Calm     77 % 0.0 mm open2300-1.11 W/m2
10:10 8.3 °C 4.5 °C 1009.0 hPa Calm     77 % 0.0 mm open2300-1.11 W/m2
11:10 9.3 °C 4.7 °C 1009.7 hPa Calm     73 % 0.0 mm open2300-1.11 W/m2
12:10 10.0 °C 5.2 °C 1009.7 hPa Calm     72 % 0.0 mm open2300-1.11 W/m2
13:10 10.4 °C 4.7 °C 1009.4 hPa Calm   22 km/h 68 % 0.0 mm open2300-1.11 W/m2
14:10 10.3 °C 4.4 °C 1010.0 hPa Calm     67 % 0.0 mm open2300-1.11 W/m2
15:10 10.1 °C 3.8 °C 1010.4 hPa Calm     65 % 0.0 mm open2300-1.11 W/m2
16:10 9.8 °C 4.2 °C 1011.1 hPa Calm     68 % 0.0 mm open2300-1.11 W/m2
17:11 8.9 °C 4.7 °C 1011.7 hPa Calm     75 % 0.0 mm open2300-1.11 W/m2
18:10 8.2 °C 3.8 °C 1012.4 hPa Calm     74 % 0.0 mm open2300-1.11 W/m2
19:10 7.4 °C 2.9 °C 1013.1 hPa Calm     73 % 0.0 mm open2300-1.11 W/m2
20:10 7.3 °C 2.2 °C 1013.8 hPa Calm     70 % 0.0 mm open2300-1.11 W/m2
21:10 6.6 °C 1.9 °C 1014.1 hPa Calm     72 % 0.0 mm open2300-1.11 W/m2
22:10 6.4 °C 1.7 °C 1014.4 hPa Calm     72 % 0.0 mm open2300-1.11 W/m2
23:10 5.9 °C 0.9 °C 1015.1 hPa SW 7.6 km/h 7.6 km/h 70 % 0.0 mm open2300-1.11 W/m2
Observations météo à CASSIS
WU-History script by Weather Underground - 1 mb